createdAt,value
2018-06-25T00:02:07.646Z,99.90
2018-06-25T00:04:36.770Z,99.90
2018-06-25T00:07:05.119Z,99.90
2018-06-25T00:09:34.358Z,99.90
2018-06-25T00:12:02.870Z,99.90
2018-06-25T00:14:31.222Z,99.90
2018-06-25T00:16:59.604Z,99.90
2018-06-25T00:19:28.280Z,99.90
2018-06-25T00:21:56.622Z,99.90
2018-06-25T00:24:25.778Z,99.90
2018-06-25T00:26:54.126Z,99.90
2018-06-25T00:29:23.141Z,99.90
2018-06-25T00:31:51.481Z,99.90
2018-06-25T00:34:19.845Z,99.90
2018-06-25T00:36:48.972Z,99.90
2018-06-25T00:39:18.058Z,99.90
2018-06-25T00:41:46.430Z,99.90
2018-06-25T00:44:15.546Z,99.90
2018-06-25T00:46:43.898Z,99.90
2018-06-25T00:49:13.005Z,99.90
2018-06-25T00:51:42.122Z,99.90
2018-06-25T00:54:10.462Z,99.90
2018-06-25T00:56:38.805Z,99.90
2018-06-25T00:59:19.257Z,99.90
2018-06-25T01:01:47.757Z,99.90
2018-06-25T01:04:16.213Z,99.90
2018-06-25T01:06:44.600Z,99.90
2018-06-25T01:09:12.954Z,99.90
2018-06-25T01:11:41.297Z,99.90
2018-06-25T01:14:09.680Z,99.90
2018-06-25T01:16:38.374Z,99.90
2018-06-25T01:19:06.737Z,99.90
2018-06-25T01:21:35.129Z,99.90
2018-06-25T01:24:04.229Z,99.90
2018-06-25T01:26:33.370Z,99.90
2018-06-25T01:29:01.724Z,99.90
2018-06-25T01:31:30.833Z,99.90
2018-06-25T01:33:59.183Z,99.90
2018-06-25T01:36:28.344Z,99.90
2018-06-25T01:38:56.697Z,99.90
2018-06-25T01:41:25.084Z,99.90
2018-06-25T01:43:53.428Z,99.90
2018-06-25T01:46:23.031Z,99.90
2018-06-25T01:48:52.262Z,99.90
2018-06-25T01:51:20.617Z,99.90
2018-06-25T01:53:49.715Z,99.90
2018-06-25T01:56:18.078Z,99.90
2018-06-25T01:58:47.197Z,99.90
2018-06-25T02:01:16.419Z,99.90
2018-06-25T02:03:44.833Z,99.90
2018-06-25T02:06:13.182Z,99.90
2018-06-25T02:08:41.541Z,99.90
2018-06-25T02:11:09.886Z,99.90
2018-06-25T02:13:39.014Z,99.90
2018-06-25T02:16:07.486Z,99.90
2018-06-25T02:18:36.086Z,99.90
2018-06-25T02:21:04.421Z,99.90
2018-06-25T02:23:32.763Z,99.90
2018-06-25T02:26:01.138Z,99.90
2018-06-25T02:28:29.526Z,99.90
2018-06-25T02:30:57.873Z,99.90
2018-06-25T02:33:26.433Z,99.90
2018-06-25T02:35:54.816Z,99.90
2018-06-25T02:38:24.046Z,99.90
2018-06-25T02:40:52.410Z,99.90
2018-06-25T02:43:20.773Z,99.90
2018-06-25T02:45:49.889Z,99.90
2018-06-25T02:48:18.251Z,99.90
2018-06-25T02:50:47.378Z,99.90
2018-06-25T02:53:15.738Z,99.90
2018-06-25T02:55:44.109Z,99.90
2018-06-25T02:58:12.454Z,99.90
2018-06-25T03:00:40.824Z,99.90
2018-06-25T03:03:09.308Z,99.90
2018-06-25T03:05:37.660Z,99.90
2018-06-25T03:08:06.039Z,99.90
2018-06-25T03:10:34.422Z,99.90
2018-06-25T03:13:02.782Z,99.90
2018-06-25T03:15:31.177Z,99.90
2018-06-25T03:17:59.530Z,99.90
2018-06-25T03:20:27.939Z,99.90
2018-06-25T03:22:56.318Z,99.90
2018-06-25T03:25:24.793Z,99.90
2018-06-25T03:27:53.170Z,99.90
2018-06-25T03:30:22.243Z,99.90
2018-06-25T03:32:50.602Z,99.90
2018-06-25T03:35:18.943Z,99.90
2018-06-25T03:37:47.291Z,99.90
2018-06-25T03:40:15.855Z,99.90
2018-06-25T03:42:44.982Z,99.90
2018-06-25T03:45:13.459Z,99.90
2018-06-25T03:47:41.815Z,99.90
2018-06-25T03:50:10.951Z,99.90
2018-06-25T03:52:39.302Z,99.90
2018-06-25T03:55:07.661Z,99.90
2018-06-25T03:57:36.802Z,99.90
2018-06-25T04:00:05.171Z,99.90
2018-06-25T04:02:33.618Z,99.90
2018-06-25T04:05:02.734Z,99.90
2018-06-25T04:07:31.086Z,99.90
2018-06-25T04:09:59.440Z,99.90
2018-06-25T04:12:27.903Z,99.90
2018-06-25T04:14:56.483Z,99.90
2018-06-25T04:17:24.833Z,99.90
2018-06-25T04:19:53.244Z,99.90
2018-06-25T04:22:21.600Z,99.90
2018-06-25T04:24:49.950Z,99.90
2018-06-25T04:27:19.073Z,99.90
2018-06-25T04:29:47.486Z,99.90
2018-06-25T04:32:15.953Z,99.90
2018-06-25T04:34:44.325Z,99.90
2018-06-25T04:37:12.714Z,99.90
2018-06-25T04:39:41.065Z,99.90
2018-06-25T04:42:09.421Z,99.90
2018-06-25T04:44:38.414Z,99.90
2018-06-25T04:47:06.777Z,99.90
2018-06-25T04:49:35.141Z,99.90
2018-06-25T04:52:03.538Z,99.90
2018-06-25T04:54:31.898Z,99.90
2018-06-25T04:57:00.424Z,99.90
2018-06-25T04:59:28.786Z,99.90
2018-06-25T05:02:01.427Z,99.90
2018-06-25T05:04:29.829Z,99.90
2018-06-25T05:06:58.271Z,99.90
2018-06-25T05:09:26.638Z,99.90
2018-06-25T05:11:54.990Z,99.90
2018-06-25T05:14:23.349Z,99.90
2018-06-25T05:16:51.902Z,99.90
2018-06-25T05:19:20.277Z,99.90
2018-06-25T05:21:48.623Z,99.90
2018-06-25T05:24:17.761Z,99.90
2018-06-25T05:26:46.133Z,99.90
2018-06-25T05:29:15.436Z,99.90
2018-06-25T05:31:43.782Z,99.90
2018-06-25T05:34:12.894Z,99.90
2018-06-25T05:36:41.261Z,99.90
2018-06-25T05:39:09.620Z,99.90
2018-06-25T05:41:38.042Z,99.90
2018-06-25T05:44:06.399Z,99.90
2018-06-25T05:46:35.537Z,99.90
2018-06-25T05:49:03.865Z,99.90
2018-06-25T05:51:32.990Z,99.90
2018-06-25T05:54:01.351Z,99.90
2018-06-25T05:56:30.478Z,99.90
2018-06-25T05:58:58.999Z,99.90
2018-06-25T06:01:27.322Z,99.90
2018-06-25T06:03:55.668Z,99.90
2018-06-25T06:06:25.006Z,99.90
2018-06-25T06:08:53.382Z,99.90
2018-06-25T06:11:21.863Z,99.90
2018-06-25T06:13:50.274Z,99.90
2018-06-25T06:16:18.592Z,99.90
2018-06-25T06:18:47.152Z,99.90
2018-06-25T06:21:15.510Z,99.90
2018-06-25T06:23:43.866Z,99.90
2018-06-25T06:26:12.238Z,99.90
2018-06-25T06:28:40.582Z,99.90
2018-06-25T06:31:08.954Z,99.90
2018-06-25T06:33:37.290Z,99.90
2018-06-25T06:36:05.654Z,99.90
2018-06-25T06:38:34.002Z,99.90
2018-06-25T06:41:02.447Z,99.90
2018-06-25T06:43:30.802Z,99.90
2018-06-25T06:45:59.165Z,99.90
2018-06-25T06:48:27.516Z,99.90
2018-06-25T06:50:55.954Z,99.90
2018-06-25T06:53:24.305Z,99.90
2018-06-25T06:55:52.687Z,99.90
2018-06-25T06:58:21.026Z,99.90
2018-06-25T07:00:49.383Z,99.90
2018-06-25T07:03:17.770Z,99.90
2018-06-25T07:05:46.125Z,99.90
2018-06-25T07:08:14.471Z,99.90
2018-06-25T07:10:43.609Z,99.90
2018-06-25T07:13:11.953Z,99.90
2018-06-25T07:15:40.406Z,99.90
2018-06-25T07:18:08.929Z,99.90
2018-06-25T07:20:37.270Z,99.90
2018-06-25T07:23:05.642Z,99.90
2018-06-25T07:25:33.996Z,99.90
2018-06-25T07:28:02.359Z,99.90
2018-06-25T07:30:30.705Z,99.90
2018-06-25T07:32:59.842Z,99.90
2018-06-25T07:35:28.185Z,99.90
2018-06-25T07:37:56.618Z,99.90
2018-06-25T07:40:24.987Z,99.90
2018-06-25T07:42:53.382Z,99.90
2018-06-25T07:45:21.709Z,99.90
2018-06-25T07:47:50.049Z,99.90
2018-06-25T07:50:18.408Z,99.90
2018-06-25T07:52:46.762Z,99.90
2018-06-25T07:55:15.113Z,99.90
2018-06-25T07:57:44.230Z,99.90
2018-06-25T08:00:12.618Z,99.90
2018-06-25T08:02:40.960Z,99.90
2018-06-25T08:05:10.088Z,99.90
2018-06-25T08:07:38.439Z,99.90
2018-06-25T08:10:08.335Z,99.90
2018-06-25T08:12:36.664Z,99.90
2018-06-25T08:15:05.151Z,99.90
2018-06-25T08:17:33.533Z,99.90
2018-06-25T08:20:01.887Z,99.90
2018-06-25T08:22:30.240Z,99.90
2018-06-25T08:24:58.666Z,99.90
2018-06-25T08:27:27.029Z,99.90
2018-06-25T08:29:55.407Z,99.90
2018-06-25T08:32:24.523Z,99.90
2018-06-25T08:34:52.865Z,99.90
2018-06-25T08:37:22.101Z,99.90
2018-06-25T08:39:50.496Z,99.90
2018-06-25T08:42:18.896Z,99.90
2018-06-25T08:44:47.321Z,99.90
2018-06-25T08:47:16.434Z,99.90
2018-06-25T08:49:44.763Z,99.90
2018-06-25T08:52:13.162Z,99.90
2018-06-25T08:54:42.385Z,99.90
2018-06-25T08:57:10.756Z,99.90
2018-06-25T08:59:39.847Z,99.90
2018-06-25T09:02:08.194Z,99.90
2018-06-25T09:04:36.547Z,99.90
2018-06-25T09:07:04.892Z,99.90
2018-06-25T09:09:34.021Z,99.90
2018-06-25T09:12:02.445Z,99.90
2018-06-25T09:14:31.566Z,99.90
2018-06-25T09:16:59.912Z,99.90
2018-06-25T09:19:29.051Z,99.90
2018-06-25T09:21:57.405Z,99.90
2018-06-25T09:24:26.605Z,99.90
2018-06-25T09:26:56.461Z,99.90
2018-06-25T09:29:24.813Z,99.90
2018-06-25T09:31:53.162Z,99.90
2018-06-25T09:34:22.283Z,99.90
2018-06-25T09:36:50.630Z,99.90
2018-06-25T09:39:19.044Z,99.90
2018-06-25T09:41:48.335Z,99.90
2018-06-25T09:44:16.617Z,99.90
2018-06-25T09:46:44.980Z,99.90
2018-06-25T09:49:14.333Z,99.90
2018-06-25T09:51:42.664Z,99.90
2018-06-25T09:54:11.803Z,99.90
2018-06-25T09:56:40.346Z,99.90
2018-06-25T09:59:08.655Z,99.90
2018-06-25T10:01:37.021Z,99.90
2018-06-25T10:04:05.374Z,99.90
2018-06-25T10:06:34.512Z,99.90
2018-06-25T10:09:02.857Z,99.90
2018-06-25T10:11:31.974Z,99.90
2018-06-25T10:14:00.377Z,99.90
2018-06-25T10:16:28.732Z,99.90
2018-06-25T10:18:57.119Z,99.90
2018-06-25T10:21:25.810Z,99.90
2018-06-25T10:23:54.071Z,99.90
2018-06-25T10:26:22.481Z,99.90
2018-06-25T10:28:50.846Z,99.90
2018-06-25T10:31:19.201Z,99.90
2018-06-25T10:33:47.601Z,99.90
2018-06-25T10:36:16.067Z,99.90
2018-06-25T10:38:44.411Z,99.90
2018-06-25T10:41:12.782Z,99.90
2018-06-25T10:43:41.166Z,99.90
2018-06-25T10:46:09.796Z,99.90
2018-06-25T10:48:39.623Z,99.90
2018-06-25T10:51:08.758Z,99.90
2018-06-25T10:53:37.211Z,99.90
2018-06-25T10:56:05.591Z,99.90
2018-06-25T10:58:33.956Z,99.90
2018-06-25T11:01:02.466Z,99.90
2018-06-25T11:03:30.814Z,99.90
2018-06-25T11:05:59.472Z,99.90
2018-06-25T11:08:27.583Z,99.90
2018-06-25T11:10:56.063Z,99.90
2018-06-25T11:13:24.420Z,99.90
2018-06-25T11:15:53.517Z,99.90
2018-06-25T11:18:22.117Z,99.90
2018-06-25T11:20:50.456Z,99.90
2018-06-25T11:23:18.809Z,99.90
2018-06-25T11:25:47.173Z,99.90
2018-06-25T11:28:15.629Z,99.90
2018-06-25T11:30:44.171Z,99.90
2018-06-25T11:33:12.619Z,99.90
2018-06-25T11:35:40.970Z,99.90
2018-06-25T11:38:09.313Z,99.90
2018-06-25T11:40:37.667Z,99.90
2018-06-25T11:43:06.025Z,99.90
2018-06-25T11:45:34.398Z,99.90
2018-06-25T11:48:02.877Z,99.90
2018-06-25T11:50:31.297Z,99.90
2018-06-25T11:52:59.652Z,99.90
2018-06-25T11:55:28.033Z,99.90
2018-06-25T11:57:57.200Z,99.90
2018-06-25T12:00:25.553Z,99.90
2018-06-25T12:02:54.159Z,99.90
2018-06-25T12:05:22.509Z,99.90
2018-06-25T12:07:50.880Z,99.90
2018-06-25T12:10:19.273Z,99.90
2018-06-25T12:12:48.390Z,99.90
2018-06-25T12:15:17.494Z,99.90
2018-06-25T12:17:46.103Z,99.90
2018-06-25T12:20:14.565Z,99.90
2018-06-25T12:22:42.935Z,99.90
2018-06-25T12:25:12.127Z,99.90
2018-06-25T12:27:40.551Z,99.90
2018-06-25T12:30:08.902Z,99.90
2018-06-25T12:32:37.255Z,99.90
2018-06-25T12:35:06.510Z,99.90
2018-06-25T12:37:34.906Z,99.90
2018-06-25T12:40:03.347Z,99.90
2018-06-25T12:42:31.702Z,99.90
2018-06-25T12:45:00.825Z,99.90
2018-06-25T12:47:29.211Z,99.90
2018-06-25T12:49:57.569Z,99.90
2018-06-25T12:52:26.677Z,99.90
2018-06-25T12:54:55.126Z,99.90
2018-06-25T12:57:24.442Z,99.90
2018-06-25T12:59:52.828Z,99.90
2018-06-25T13:02:21.248Z,99.90
2018-06-25T13:04:49.599Z,99.90
2018-06-25T13:07:17.951Z,99.90
2018-06-25T13:09:47.074Z,99.90
2018-06-25T13:12:15.421Z,99.90
2018-06-25T13:14:44.560Z,99.90
2018-06-25T13:17:12.955Z,99.90
2018-06-25T13:19:41.482Z,99.90
2018-06-25T13:22:09.878Z,99.90
2018-06-25T13:24:38.417Z,99.90
2018-06-25T13:27:06.779Z,99.90
2018-06-25T13:29:35.869Z,99.90
2018-06-25T13:32:05.071Z,99.90
2018-06-25T13:34:33.424Z,99.90
2018-06-25T13:37:01.890Z,99.90
2018-06-25T13:39:31.130Z,99.90
2018-06-25T13:41:59.481Z,99.90
2018-06-25T13:44:27.964Z,99.90
2018-06-25T13:46:56.403Z,99.90
2018-06-25T13:49:24.770Z,99.90
2018-06-25T13:51:53.127Z,99.90
2018-06-25T13:54:21.489Z,99.90
2018-06-25T13:56:50.720Z,99.90
2018-06-25T13:59:19.119Z,99.90
2018-06-25T14:01:47.497Z,99.90
2018-06-25T14:04:16.023Z,99.90
2018-06-25T14:06:44.389Z,99.90
2018-06-25T14:09:12.746Z,99.90
2018-06-25T14:11:41.094Z,99.90
2018-06-25T14:14:09.553Z,99.90
2018-06-25T14:16:37.985Z,99.90
2018-06-25T14:19:06.421Z,99.90
2018-06-25T14:21:34.871Z,99.90
2018-06-25T14:24:03.220Z,99.90
2018-06-25T14:26:31.551Z,99.90
2018-06-25T14:28:59.939Z,99.90
2018-06-25T14:31:28.283Z,99.90
2018-06-25T14:33:57.409Z,99.90
2018-06-25T14:36:25.830Z,99.90
2018-06-25T14:38:54.198Z,99.90
2018-06-25T14:41:22.576Z,99.90
2018-06-25T14:43:51.018Z,99.90
2018-06-25T14:46:19.376Z,99.90
2018-06-25T14:48:47.723Z,99.90
2018-06-25T14:51:16.983Z,99.90
2018-06-25T14:53:45.342Z,99.90
2018-06-25T14:56:14.317Z,99.90
2018-06-25T14:58:43.421Z,99.90
2018-06-25T15:01:11.790Z,99.90
2018-06-25T15:03:40.156Z,99.90
2018-06-25T15:06:08.572Z,99.90
2018-06-25T15:08:36.935Z,99.90
2018-06-25T15:11:06.074Z,99.90
2018-06-25T15:13:34.417Z,99.90
2018-06-25T15:16:06.568Z,99.90
2018-06-25T15:18:35.027Z,99.90
2018-06-25T15:21:03.429Z,99.90
2018-06-25T15:23:31.860Z,99.90
2018-06-25T15:26:00.295Z,99.90
2018-06-25T15:28:28.744Z,99.90
2018-06-25T15:30:57.258Z,99.90
2018-06-25T15:33:26.487Z,99.90
2018-06-25T15:35:55.708Z,99.90
2018-06-25T15:38:24.995Z,99.90
2018-06-25T15:40:53.477Z,99.90
2018-06-25T15:43:21.813Z,99.90
2018-06-25T15:45:50.173Z,99.90
2018-06-25T15:48:18.621Z,99.90
2018-06-25T15:50:47.315Z,99.90
2018-06-25T15:53:15.649Z,99.90
2018-06-25T15:55:44.792Z,99.90
2018-06-25T15:58:13.190Z,99.90
2018-06-25T16:00:41.554Z,99.90
2018-06-25T16:03:09.934Z,99.90
2018-06-25T16:05:38.280Z,99.90
2018-06-25T16:08:06.694Z,99.90
2018-06-25T16:10:35.265Z,99.90
2018-06-25T16:13:03.620Z,99.90
2018-06-25T16:15:32.046Z,99.90
2018-06-25T16:18:00.401Z,99.90
2018-06-25T16:20:28.757Z,99.90
2018-06-25T16:22:57.320Z,99.90
2018-06-25T16:25:26.618Z,99.90
2018-06-25T16:27:55.867Z,99.90
2018-06-25T16:30:24.285Z,99.90
2018-06-25T16:32:52.802Z,99.90
2018-06-25T16:35:21.307Z,99.90
2018-06-25T16:37:50.107Z,99.90
2018-06-25T16:40:18.562Z,99.90
2018-06-25T16:42:47.106Z,99.90
2018-06-25T16:45:15.461Z,99.90
2018-06-25T16:47:43.884Z,99.90
2018-06-25T16:50:13.190Z,99.80
2018-06-25T16:52:42.358Z,99.90
2018-06-25T16:55:10.802Z,99.90
2018-06-25T16:57:39.673Z,99.90
2018-06-25T17:00:08.040Z,99.90
2018-06-25T17:02:37.345Z,99.00
2018-06-25T17:05:07.361Z,98.90
2018-06-25T17:07:36.605Z,98.30
2018-06-25T17:10:04.999Z,98.30
2018-06-25T17:12:33.489Z,98.70
2018-06-25T17:15:01.928Z,98.50
2018-06-25T17:17:30.411Z,98.70
2018-06-25T17:19:58.774Z,99.40
2018-06-25T17:22:27.171Z,99.60
2018-06-25T17:24:55.526Z,99.90
2018-06-25T17:27:24.526Z,99.90
2018-06-25T17:29:52.917Z,99.90
2018-06-25T17:32:21.589Z,99.90
2018-06-25T17:34:50.080Z,99.90
2018-06-25T17:37:18.551Z,99.90
2018-06-25T17:39:46.920Z,99.90
2018-06-25T17:42:16.040Z,99.90
2018-06-25T17:44:44.390Z,99.90
2018-06-25T17:47:13.542Z,99.90
2018-06-25T17:49:41.891Z,99.90
2018-06-25T17:52:10.271Z,99.90
2018-06-25T17:54:39.131Z,99.90
2018-06-25T17:57:08.348Z,99.90
2018-06-25T17:59:36.808Z,99.90
2018-06-25T18:02:05.169Z,99.90
2018-06-25T18:04:33.688Z,99.90
2018-06-25T18:07:02.050Z,99.90
2018-06-25T18:09:30.403Z,99.90
2018-06-25T18:11:58.857Z,99.90
2018-06-25T18:14:27.251Z,99.90
2018-06-25T18:16:55.594Z,99.90
2018-06-25T18:19:23.965Z,99.90
2018-06-25T18:21:52.290Z,99.90
2018-06-25T18:24:20.659Z,99.90
2018-06-25T18:26:49.046Z,99.90
2018-06-25T18:29:17.412Z,99.90
2018-06-25T18:31:45.869Z,99.90
2018-06-25T18:34:14.354Z,99.90
2018-06-25T18:36:43.570Z,99.90
2018-06-25T18:39:12.022Z,99.90
2018-06-25T18:41:40.591Z,99.90
2018-06-25T18:44:09.021Z,99.90
2018-06-25T18:46:37.376Z,99.90
2018-06-25T18:49:05.734Z,99.90
2018-06-25T18:51:34.848Z,99.90
2018-06-25T18:54:03.330Z,99.90
2018-06-25T18:56:31.686Z,99.90
2018-06-25T18:59:00.803Z,99.90
2018-06-25T19:01:29.178Z,99.90
2018-06-25T19:03:58.310Z,99.90
2018-06-25T19:06:26.692Z,99.90
2018-06-25T19:08:55.089Z,99.90
2018-06-25T19:11:23.450Z,99.90
2018-06-25T19:13:51.838Z,99.90
2018-06-25T19:16:20.219Z,99.90
2018-06-25T19:18:48.626Z,99.90
2018-06-25T19:21:17.517Z,99.90
2018-06-25T19:23:45.895Z,99.90
2018-06-25T19:26:14.276Z,99.90
2018-06-25T19:28:42.703Z,99.90
2018-06-25T19:31:11.072Z,99.90
2018-06-25T19:33:39.593Z,99.90
2018-06-25T19:36:08.905Z,99.90
2018-06-25T19:38:37.367Z,99.90
2018-06-25T19:41:05.780Z,99.90
2018-06-25T19:43:34.260Z,99.90
2018-06-25T19:46:02.809Z,99.90
2018-06-25T19:48:31.265Z,99.90
2018-06-25T19:50:59.640Z,99.90
2018-06-25T19:53:28.150Z,99.90
2018-06-25T19:55:56.550Z,99.90
2018-06-25T19:58:24.906Z,99.90
2018-06-25T20:00:53.304Z,99.90
2018-06-25T20:03:21.800Z,99.90
2018-06-25T20:05:50.197Z,99.90
2018-06-25T20:08:18.554Z,99.90
2018-06-25T20:10:46.852Z,99.90
2018-06-25T20:13:15.318Z,99.90
2018-06-25T20:15:43.775Z,99.90
2018-06-25T20:18:12.075Z,99.90
2018-06-25T20:20:40.419Z,99.90
2018-06-25T20:23:08.796Z,99.90
2018-06-25T20:25:37.146Z,99.90
2018-06-25T20:28:06.308Z,99.90
2018-06-25T20:30:35.411Z,99.90
2018-06-25T20:33:03.856Z,99.90
2018-06-25T20:35:36.309Z,99.90
2018-06-25T20:38:05.713Z,99.90
2018-06-25T20:40:34.079Z,99.90
2018-06-25T20:43:03.199Z,99.90
2018-06-25T20:45:32.475Z,99.90
2018-06-25T20:48:00.882Z,99.90
2018-06-25T20:50:29.233Z,99.90
2018-06-25T20:52:58.350Z,99.90
2018-06-25T20:55:26.712Z,99.90
2018-06-25T20:57:55.887Z,99.90
2018-06-25T21:00:24.235Z,99.90
2018-06-25T21:02:52.587Z,99.90
2018-06-25T21:05:21.037Z,99.90
2018-06-25T21:07:50.191Z,99.90
2018-06-25T21:10:18.542Z,99.90
2018-06-25T21:12:46.961Z,99.90
2018-06-25T21:15:15.358Z,99.90
2018-06-25T21:17:43.811Z,99.90
2018-06-25T21:20:12.165Z,99.90
2018-06-25T21:22:41.125Z,99.90
2018-06-25T21:25:09.561Z,99.90
2018-06-25T21:27:38.798Z,99.90
2018-06-25T21:30:07.407Z,99.90
2018-06-25T21:32:35.774Z,99.90
2018-06-25T21:35:04.297Z,99.90
2018-06-25T21:37:32.659Z,99.90
2018-06-25T21:40:01.001Z,99.90
2018-06-25T21:42:29.360Z,99.90
2018-06-25T21:44:57.739Z,99.90
2018-06-25T21:47:26.103Z,99.90
2018-06-25T21:49:54.539Z,99.90
2018-06-25T21:52:22.889Z,99.90
2018-06-25T21:54:51.664Z,99.90
2018-06-25T21:57:20.335Z,99.90
2018-06-25T21:59:48.690Z,99.90
2018-06-25T22:02:17.153Z,99.90
2018-06-25T22:04:46.315Z,99.90
2018-06-25T22:07:14.692Z,99.90
2018-06-25T22:09:43.134Z,99.90
2018-06-25T22:12:11.839Z,99.90
2018-06-25T22:14:41.115Z,99.90
2018-06-25T22:17:09.512Z,99.90
2018-06-25T22:19:37.962Z,99.90
2018-06-25T22:22:07.122Z,99.90
2018-06-25T22:24:35.673Z,99.90
2018-06-25T22:27:04.045Z,99.90
2018-06-25T22:29:32.638Z,99.90
2018-06-25T22:32:00.986Z,99.90
2018-06-25T22:34:29.405Z,99.90
2018-06-25T22:36:57.941Z,99.90
2018-06-25T22:39:27.102Z,99.90
2018-06-25T22:41:55.554Z,99.90
2018-06-25T22:44:23.936Z,99.90
2018-06-25T22:46:52.294Z,99.90
2018-06-25T22:49:20.650Z,99.90
2018-06-25T22:51:49.791Z,99.90
2018-06-25T22:54:18.154Z,99.90
2018-06-25T22:56:46.659Z,99.90
2018-06-25T22:59:15.013Z,99.90
2018-06-25T23:01:43.508Z,99.90
2018-06-25T23:04:12.005Z,99.90
2018-06-25T23:06:40.452Z,99.90
2018-06-25T23:09:08.926Z,99.90
2018-06-25T23:11:38.795Z,99.90
2018-06-25T23:14:07.236Z,99.90
2018-06-25T23:16:36.459Z,99.90
2018-06-25T23:19:05.050Z,99.90
2018-06-25T23:21:33.601Z,99.90
2018-06-25T23:24:02.019Z,99.90
2018-06-25T23:26:30.392Z,99.90
2018-06-25T23:28:58.783Z,99.90
2018-06-25T23:31:27.216Z,99.90
2018-06-25T23:33:56.506Z,99.90
2018-06-25T23:36:25.049Z,99.90
2018-06-25T23:38:53.397Z,99.90
2018-06-25T23:41:21.951Z,99.90
2018-06-25T23:43:50.323Z,99.90
2018-06-25T23:46:19.541Z,99.90
2018-06-25T23:48:47.999Z,99.90
2018-06-25T23:51:16.638Z,99.90
2018-06-25T23:53:45.185Z,99.90
2018-06-25T23:56:13.623Z,99.90
2018-06-25T23:58:42.012Z,99.90
